Terminal Aerodrome Forecast
Issued by NWS

Home | Current Version | Previous Version | Text Only | Print | Product List | Glossary On
Versions: 1 2 3 4 5 6 7 8 9 10 11 12 13 14 15 16 17 18 19 20 21 22 23 24 25 26 27 28 29 30 31 32
115
FTUS43 KABR 182320
TAFATY
TAF
KATY 182320Z 1900/1924 03014KT P6SM FEW021 FEW026 SCT035
     FM190200 33004KT P6SM FEW250
     FM191300 20004KT P6SM SKC
     FM191700 19008KT P6SM SKC=

USA.gov is the U.S. government's official web portal to all federal, state and local government web resources and services.